createdAt,value
2023-02-04T00:01:35.532Z,2.6
2023-02-04T00:04:37.495Z,2.9
2023-02-04T00:07:41.247Z,2.7
2023-02-04T00:10:41.421Z,2.9
2023-02-04T00:13:43.373Z,3.1
2023-02-04T00:16:45.334Z,2.9
2023-02-04T00:19:47.297Z,2.8
2023-02-04T00:22:49.285Z,2.9
2023-02-04T00:25:51.235Z,3.1
2023-02-04T00:28:53.188Z,2.6
2023-02-04T00:31:55.251Z,2.9
2023-02-04T00:34:57.112Z,2.6
2023-02-04T00:37:59.066Z,2.9
2023-02-04T00:41:01.119Z,2.9
2023-02-04T00:44:02.984Z,2.4
2023-02-04T00:47:04.938Z,3.6
2023-02-04T00:50:06.911Z,2.4
2023-02-04T00:53:08.859Z,2.6
2023-02-04T00:56:10.807Z,2.5
2023-02-04T00:59:12.794Z,2.2
2023-02-04T01:02:14.738Z,2.5
2023-02-04T01:05:16.745Z,2.3
2023-02-04T01:08:18.697Z,2.5
2023-02-04T01:11:20.644Z,2.5
2023-02-04T01:14:22.620Z,2.6
2023-02-04T01:17:24.575Z,2.3
2023-02-04T01:20:26.563Z,2.3
2023-02-04T01:23:28.502Z,2.7
2023-02-04T01:26:30.476Z,2.9
2023-02-04T01:29:32.443Z,2.3
2023-02-04T01:32:34.397Z,2.2
2023-02-04T01:35:36.369Z,2.2
2023-02-04T01:38:38.317Z,3.1
2023-02-04T01:41:40.278Z,2.5
2023-02-04T01:44:42.251Z,2.4
2023-02-04T01:47:44.196Z,2.9
2023-02-04T01:50:46.162Z,2.1
2023-02-04T01:53:48.107Z,2.3
2023-02-04T01:56:50.059Z,2.4
2023-02-04T01:59:52.030Z,2.3
2023-02-04T02:02:53.971Z,2.4
2023-02-04T02:05:55.942Z,2.6
2023-02-04T02:08:57.898Z,2.8
2023-02-04T02:11:59.862Z,2.4
2023-02-04T02:15:01.821Z,2.4
2023-02-04T02:18:03.785Z,3.2
2023-02-04T02:21:05.762Z,2.3
2023-02-04T02:24:07.805Z,2.4
2023-02-04T02:27:09.681Z,2.2
2023-02-04T02:30:11.610Z,2.2
2023-02-04T02:33:13.579Z,2.7
2023-02-04T02:36:15.530Z,2.5
2023-02-04T02:39:17.491Z,3.1
2023-02-04T02:42:19.453Z,2.7
2023-02-04T02:45:21.410Z,2.3
2023-02-04T02:48:23.358Z,2.4
2023-02-04T02:51:25.323Z,2.8
2023-02-04T02:54:27.309Z,2.5
2023-02-04T02:57:29.255Z,3.1
2023-02-04T03:00:31.514Z,2.4
2023-02-04T03:03:33.160Z,2.6
2023-02-04T03:06:35.136Z,2.2
2023-02-04T03:09:37.089Z,2.5
2023-02-04T03:12:39.049Z,2.6
2023-02-04T03:15:41.012Z,2.2
2023-02-04T03:18:42.964Z,2.6
2023-02-04T03:21:44.945Z,2.6
2023-02-04T03:24:46.896Z,2.6
2023-02-04T03:27:48.887Z,2.6
2023-02-04T03:30:50.901Z,2.9
2023-02-04T03:33:52.793Z,2.6
2023-02-04T03:36:54.742Z,2.4
2023-02-04T03:39:56.697Z,3.1
2023-02-04T03:42:58.663Z,2.8
2023-02-04T03:46:00.644Z,3.5
2023-02-04T03:49:02.586Z,3.2
2023-02-04T03:52:04.556Z,3
2023-02-04T03:55:06.498Z,3.2
2023-02-04T03:58:08.463Z,2.6
2023-02-04T04:01:10.415Z,2.7
2023-02-04T04:04:12.366Z,2.6
2023-02-04T04:07:14.371Z,3.6
2023-02-04T04:10:16.344Z,3.3
2023-02-04T04:13:18.307Z,3.3
2023-02-04T04:16:20.298Z,2.4
2023-02-04T04:19:22.213Z,3
2023-02-04T04:22:24.192Z,2.6
2023-02-04T04:25:26.157Z,3.4
2023-02-04T04:28:28.096Z,2.6
2023-02-04T04:31:30.178Z,2.9
2023-02-04T04:34:32.021Z,2.3
2023-02-04T04:37:33.991Z,3.6
2023-02-04T04:40:35.931Z,3.2
2023-02-04T04:43:37.884Z,3
2023-02-04T04:46:39.851Z,2.9
2023-02-04T04:49:41.804Z,3
2023-02-04T04:52:43.775Z,2.6
2023-02-04T04:55:45.735Z,2.6
2023-02-04T04:58:47.714Z,3.1
2023-02-04T05:01:49.718Z,3.5
2023-02-04T05:04:51.687Z,3.5
2023-02-04T05:07:53.619Z,2.7
2023-02-04T05:10:55.565Z,3.4
2023-02-04T05:13:57.542Z,3.2
2023-02-04T05:16:59.486Z,3.5
2023-02-04T05:20:01.449Z,3.4
2023-02-04T05:23:05.436Z,3.5
2023-02-04T05:26:05.372Z,3.3
2023-02-04T05:29:07.970Z,3.2
2023-02-04T05:32:09.298Z,3.4
2023-02-04T05:35:11.260Z,2.5
2023-02-04T05:38:13.215Z,2.8
2023-02-04T05:41:15.163Z,3.2
2023-02-04T05:44:17.125Z,3
2023-02-04T05:47:19.074Z,2.8
2023-02-04T05:50:21.039Z,2.8
2023-02-04T05:53:23.801Z,3.2
2023-02-04T05:56:24.996Z,3.2
2023-02-04T05:59:26.973Z,3.5
2023-02-04T06:02:28.914Z,4
2023-02-04T06:05:30.885Z,3
2023-02-04T06:08:32.861Z,2.8
2023-02-04T06:11:34.820Z,2.9
2023-02-04T06:14:36.886Z,3
2023-02-04T06:17:38.729Z,3.8
2023-02-04T06:20:40.675Z,3.8
2023-02-04T06:23:42.658Z,3.4
2023-02-04T06:26:44.608Z,3.3
2023-02-04T06:29:46.564Z,3.4
2023-02-04T06:32:48.552Z,2.4
2023-02-04T06:35:50.512Z,3.6
2023-02-04T06:38:52.464Z,3.1
2023-02-04T06:41:54.410Z,2.8
2023-02-04T06:44:56.380Z,3.4
2023-02-04T06:47:58.329Z,3.7
2023-02-04T06:51:00.294Z,3
2023-02-04T06:54:02.256Z,3.8
2023-02-04T06:57:04.227Z,3.7
2023-02-04T07:00:06.174Z,3
2023-02-04T07:03:08.133Z,3.1
2023-02-04T07:06:10.098Z,3.6
2023-02-04T07:09:12.067Z,3.8
2023-02-04T07:12:15.939Z,4
2023-02-04T07:15:16.045Z,3.4
2023-02-04T07:18:17.983Z,3.6
2023-02-04T07:21:19.963Z,3.6
2023-02-04T07:24:21.909Z,3.4
2023-02-04T07:27:23.879Z,3.4
2023-02-04T07:30:25.813Z,3.7
2023-02-04T07:33:27.813Z,5.1
2023-02-04T07:36:29.842Z,4.6
2023-02-04T07:39:31.900Z,4.7
2023-02-04T07:42:33.656Z,3.6
2023-02-04T07:45:35.608Z,3.7
2023-02-04T07:48:37.561Z,4.2
2023-02-04T07:51:39.501Z,2.8
2023-02-04T07:54:41.469Z,4.2
2023-02-04T07:57:43.414Z,4.4
2023-02-04T08:00:45.382Z,3.5
2023-02-04T08:03:47.346Z,4.1
2023-02-04T08:06:49.305Z,3.8
2023-02-04T08:09:51.264Z,4.1
2023-02-04T08:12:53.216Z,3.9
2023-02-04T08:15:55.229Z,4.1
2023-02-04T08:18:57.159Z,3.8
2023-02-04T08:21:59.123Z,4.5
2023-02-04T08:25:01.070Z,4.2
2023-02-04T08:28:03.099Z,3.2
2023-02-04T08:31:05.090Z,4
2023-02-04T08:34:06.974Z,3.4
2023-02-04T08:37:08.972Z,3.9
2023-02-04T08:40:10.880Z,4.3
2023-02-04T08:43:12.848Z,3.9
2023-02-04T08:46:14.846Z,3.9
2023-02-04T08:49:16.759Z,3.3
2023-02-04T08:52:18.712Z,4.1
2023-02-04T08:55:20.693Z,3.7
2023-02-04T08:58:22.653Z,3.8
2023-02-04T09:01:24.664Z,3.9
2023-02-04T09:04:26.595Z,3.4
2023-02-04T09:07:28.557Z,3.9
2023-02-04T09:10:30.717Z,3.6
2023-02-04T09:13:32.527Z,3.4
2023-02-04T09:16:34.455Z,3.7
2023-02-04T09:19:36.403Z,3.2
2023-02-04T09:22:38.351Z,3.4
2023-02-04T09:25:40.321Z,3.5
2023-02-04T09:28:42.266Z,3.6
2023-02-04T09:31:44.316Z,3.2
2023-02-04T09:34:46.219Z,3.9
2023-02-04T09:37:48.163Z,3.5
2023-02-04T09:40:50.116Z,3.2
2023-02-04T09:43:52.077Z,3.1
2023-02-04T09:46:54.038Z,3.6
2023-02-04T09:49:56.029Z,3.6
2023-02-04T09:52:58.069Z,3.3
2023-02-04T09:55:59.925Z,3
2023-02-04T09:59:01.901Z,2.7
2023-02-04T10:02:03.855Z,3.4
2023-02-04T10:05:05.816Z,2.9
2023-02-04T10:08:07.770Z,3
2023-02-04T10:11:09.752Z,3.4
2023-02-04T10:14:11.718Z,2.7
2023-02-04T10:17:13.678Z,3
2023-02-04T10:20:15.649Z,3.2
2023-02-04T10:23:17.639Z,4.4
2023-02-04T10:26:19.570Z,3.7
2023-02-04T10:29:21.574Z,3.4
2023-02-04T10:32:23.509Z,3.2
2023-02-04T10:35:25.468Z,3.2
2023-02-04T10:38:27.445Z,3.8
2023-02-04T10:41:29.413Z,3.5
2023-02-04T10:44:31.394Z,3
2023-02-04T10:47:33.332Z,2.9
2023-02-04T10:50:35.323Z,2.5
2023-02-04T10:53:37.368Z,2.9
2023-02-04T10:56:39.249Z,2.3
2023-02-04T10:59:41.230Z,1.9
2023-02-04T11:02:43.198Z,2.3
2023-02-04T11:05:45.193Z,2.5
2023-02-04T11:08:47.871Z,2.8
2023-02-04T11:11:49.072Z,2.3
2023-02-04T11:14:51.101Z,2.3
2023-02-04T11:17:53.089Z,2.5
2023-02-04T11:20:55.033Z,2.1
2023-02-04T11:23:56.988Z,1.8
2023-02-04T11:26:58.946Z,2.5
2023-02-04T11:30:00.900Z,2.1
2023-02-04T11:33:02.892Z,2.7
2023-02-04T11:36:04.840Z,2.8
2023-02-04T11:39:06.786Z,2.3
2023-02-04T11:42:08.755Z,1.9
2023-02-04T11:45:10.728Z,2.5
2023-02-04T11:48:12.681Z,2.1
2023-02-04T11:51:14.646Z,2.6
2023-02-04T11:54:16.619Z,2.4
2023-02-04T11:57:18.566Z,2.2
2023-02-04T12:00:20.548Z,2
2023-02-04T12:03:22.524Z,2.5
2023-02-04T12:06:24.474Z,2.2
2023-02-04T12:09:26.436Z,2.1
2023-02-04T12:12:28.409Z,2.2
2023-02-04T12:15:30.800Z,2.3
2023-02-04T12:18:32.481Z,2.1
2023-02-04T12:21:34.289Z,4.4
2023-02-04T12:24:36.238Z,2.8
2023-02-04T12:27:38.194Z,2.9
2023-02-04T12:30:40.198Z,2.6
2023-02-04T12:33:42.121Z,2.3
2023-02-04T12:36:44.095Z,2.7
2023-02-04T12:39:46.059Z,2.9
2023-02-04T12:42:48.017Z,2.9
2023-02-04T12:45:50.144Z,2.6
2023-02-04T12:48:51.957Z,2.6
2023-02-04T12:51:53.895Z,2.6
2023-02-04T12:54:55.844Z,2.6
2023-02-04T12:57:57.808Z,2.4
2023-02-04T13:00:59.795Z,2.6
2023-02-04T13:04:01.731Z,2.2
2023-02-04T13:07:03.817Z,2.3
2023-02-04T13:10:05.648Z,2.4
2023-02-04T13:13:07.608Z,2.1
2023-02-04T13:16:09.636Z,2.6
2023-02-04T13:19:11.533Z,2.6
2023-02-04T13:22:13.487Z,2.7
2023-02-04T13:25:15.456Z,2.3
2023-02-04T13:28:17.474Z,3
2023-02-04T13:31:19.445Z,2.9
2023-02-04T13:34:21.360Z,2.2
2023-02-04T13:37:23.290Z,2.4
2023-02-04T13:40:25.256Z,2.5
2023-02-04T13:43:27.214Z,2.1
2023-02-04T13:46:29.169Z,2.1
2023-02-04T13:49:31.157Z,2.2
2023-02-04T13:52:33.104Z,3
2023-02-04T13:55:35.137Z,2.7
2023-02-04T13:58:37.167Z,2.1
2023-02-04T14:01:39.003Z,2
2023-02-04T14:04:40.968Z,2.9
2023-02-04T14:07:42.911Z,2.3
2023-02-04T14:10:44.861Z,2.3
2023-02-04T14:13:46.850Z,2
2023-02-04T14:16:48.859Z,2.8
2023-02-04T14:19:50.797Z,2.5
2023-02-04T14:22:52.744Z,1.9
2023-02-04T14:25:54.709Z,1.9
2023-02-04T14:28:56.661Z,2.5
2023-02-04T14:31:58.680Z,2.7
2023-02-04T14:35:00.585Z,2.4
2023-02-04T14:38:02.739Z,2.2
2023-02-04T14:41:04.491Z,2.4
2023-02-04T14:44:06.456Z,2
2023-02-04T14:47:08.420Z,2.3
2023-02-04T14:50:10.386Z,2.1
2023-02-04T14:53:12.357Z,2.3
2023-02-04T14:56:14.327Z,2.2
2023-02-04T14:59:16.291Z,2.9
2023-02-04T15:02:18.282Z,2.5
2023-02-04T15:05:20.214Z,2.4
2023-02-04T15:08:22.170Z,2.7
2023-02-04T15:11:24.129Z,1.8
2023-02-04T15:14:26.099Z,1.8
2023-02-04T15:17:28.053Z,2.1
2023-02-04T15:20:30.235Z,2.4
2023-02-04T15:23:32.015Z,1.9
2023-02-04T15:26:33.950Z,2.4
2023-02-04T15:29:35.910Z,1.9
2023-02-04T15:32:37.872Z,2.6
2023-02-04T15:35:39.847Z,2.1
2023-02-04T15:38:41.788Z,2.1
2023-02-04T15:41:43.735Z,2.1
2023-02-04T15:44:45.703Z,2.6
2023-02-04T15:47:47.660Z,2.3
2023-02-04T15:50:49.637Z,1.9
2023-02-04T15:53:51.609Z,2
2023-02-04T15:56:53.554Z,2
2023-02-04T15:59:55.546Z,1.9
2023-02-04T16:02:57.578Z,1.9
2023-02-04T16:05:59.445Z,1.8
2023-02-04T16:09:01.429Z,2.1
2023-02-04T16:12:03.399Z,2.2
2023-02-04T16:15:05.350Z,2.2
2023-02-04T16:18:07.293Z,2.7
2023-02-04T16:21:09.257Z,3
2023-02-04T16:24:11.225Z,2.2
2023-02-04T16:27:13.233Z,1.9
2023-02-04T16:30:15.145Z,2.3
2023-02-04T16:33:17.109Z,2
2023-02-04T16:36:19.094Z,2.2
2023-02-04T16:39:21.032Z,2.5
2023-02-04T16:42:22.993Z,2.1
2023-02-04T16:45:24.956Z,2
2023-02-04T16:48:26.918Z,1.9
2023-02-04T16:51:28.880Z,2
2023-02-04T16:54:30.840Z,2.1
2023-02-04T16:57:33.024Z,2.3
2023-02-04T17:00:34.767Z,2.1
2023-02-04T17:03:36.723Z,2.1
2023-02-04T17:06:38.677Z,2
2023-02-04T17:09:40.675Z,2.7
2023-02-04T17:12:42.609Z,2.2
2023-02-04T17:15:44.576Z,1.6
2023-02-04T17:18:46.531Z,2.1
2023-02-04T17:21:48.498Z,2.2
2023-02-04T17:24:50.460Z,1.7
2023-02-04T17:27:52.449Z,2.2
2023-02-04T17:30:54.435Z,1.9
2023-02-04T17:33:56.352Z,1.8
2023-02-04T17:36:58.320Z,2
2023-02-04T17:40:00.297Z,1.9
2023-02-04T17:43:02.239Z,1.5
2023-02-04T17:46:04.227Z,1.8
2023-02-04T17:49:06.182Z,1.9
2023-02-04T17:52:08.142Z,2.6
2023-02-04T17:55:10.127Z,1.8
2023-02-04T17:58:12.070Z,2.5
2023-02-04T18:01:14.274Z,2.6
2023-02-04T18:04:15.981Z,2.2
2023-02-04T18:07:17.926Z,2.5
2023-02-04T18:10:19.907Z,2.1
2023-02-04T18:13:21.854Z,2.6
2023-02-04T18:16:23.854Z,2.2
2023-02-04T18:19:25.787Z,2.6
2023-02-04T18:22:27.735Z,2.7
2023-02-04T18:25:29.784Z,2.9
2023-02-04T18:28:31.683Z,3
2023-02-04T18:31:33.691Z,4.1
2023-02-04T18:34:35.581Z,4
2023-02-04T18:37:37.540Z,3.4
2023-02-04T18:40:41.476Z,2.7
2023-02-04T18:43:41.475Z,2.9
2023-02-04T18:46:43.412Z,2.7
2023-02-04T18:49:45.384Z,2.8
2023-02-04T18:52:47.382Z,2.4
2023-02-04T18:55:49.316Z,3
2023-02-04T18:58:51.306Z,2.7
2023-02-04T19:01:53.262Z,3.7
2023-02-04T19:05:11.263Z,3.2
2023-02-04T19:07:57.167Z,3
2023-02-04T19:10:59.101Z,3.9
2023-02-04T19:14:01.082Z,3.4
2023-02-04T19:17:03.202Z,3.8
2023-02-04T19:20:04.980Z,3.6
2023-02-04T19:23:06.956Z,3.7
2023-02-04T19:26:08.904Z,3.7
2023-02-04T19:29:10.894Z,3.3
2023-02-04T19:32:12.832Z,3
2023-02-04T19:35:15.070Z,3.2
2023-02-04T19:38:16.777Z,3.7
2023-02-04T19:41:18.723Z,3.2
2023-02-04T19:44:20.716Z,3.5
2023-02-04T19:47:22.676Z,2.6
2023-02-04T19:50:24.611Z,2.6
2023-02-04T19:53:26.577Z,2.8
2023-02-04T19:56:28.532Z,3.1
2023-02-04T19:59:30.482Z,2.8
2023-02-04T20:02:32.473Z,3.1
2023-02-04T20:05:34.677Z,2.2
2023-02-04T20:08:36.368Z,3.3
2023-02-04T20:11:38.318Z,2.7
2023-02-04T20:14:40.434Z,3.2
2023-02-04T20:17:42.239Z,3.1
2023-02-04T20:20:45.461Z,3.2
2023-02-04T20:23:46.175Z,3.1
2023-02-04T20:26:48.112Z,2.9
2023-02-04T20:29:50.124Z,2.9
2023-02-04T20:32:52.028Z,3.2
2023-02-04T20:35:54.010Z,4
2023-02-04T20:38:55.978Z,4.1
2023-02-04T20:41:57.913Z,4.1
2023-02-04T20:44:59.890Z,4.8
2023-02-04T20:48:01.871Z,4.5
2023-02-04T20:51:03.815Z,4.2
2023-02-04T20:54:05.751Z,4.6
2023-02-04T20:57:07.703Z,4.4
2023-02-04T21:00:09.665Z,4.1
2023-02-04T21:03:11.613Z,4.5
2023-02-04T21:06:13.589Z,4.2
2023-02-04T21:09:15.543Z,4.9
2023-02-04T21:12:17.507Z,5.3
2023-02-04T21:15:19.469Z,3.9
2023-02-04T21:18:21.420Z,4.5
2023-02-04T21:21:23.391Z,4.8
2023-02-04T21:24:25.332Z,5.4
2023-02-04T21:27:27.321Z,5.3
2023-02-04T21:30:29.242Z,4.7
2023-02-04T21:33:31.229Z,4.9
2023-02-04T21:36:33.187Z,5.3
2023-02-04T21:39:35.129Z,5.3
2023-02-04T21:42:37.094Z,4.5
2023-02-04T21:45:39.052Z,4.9
2023-02-04T21:48:41.034Z,4.7
2023-02-04T21:51:42.994Z,4.1
2023-02-04T21:54:44.951Z,4.3
2023-02-04T21:57:46.913Z,4.5
2023-02-04T22:00:48.862Z,4.3
2023-02-04T22:03:50.860Z,4.2
2023-02-04T22:06:52.772Z,4
2023-02-04T22:09:54.735Z,4.9
2023-02-04T22:12:56.698Z,4.1
2023-02-04T22:15:58.696Z,3.8
2023-02-04T22:19:00.620Z,3.8
2023-02-04T22:22:02.596Z,4.3
2023-02-04T22:25:04.564Z,4.3
2023-02-04T22:28:06.575Z,3.9
2023-02-04T22:31:08.544Z,4.3
2023-02-04T22:34:10.448Z,3.8
2023-02-04T22:37:12.400Z,4.4
2023-02-04T22:40:14.387Z,4.7
2023-02-04T22:43:16.325Z,4.5
2023-02-04T22:46:18.341Z,5.4
2023-02-04T22:49:20.218Z,4.5
2023-02-04T22:52:22.197Z,4.7
2023-02-04T22:55:24.124Z,6.3
2023-02-04T22:58:26.089Z,4.3
2023-02-04T23:01:28.045Z,4.8
2023-02-04T23:04:29.996Z,4.4
2023-02-04T23:07:31.970Z,4
2023-02-04T23:10:33.919Z,4.6
2023-02-04T23:13:35.972Z,3.7
2023-02-04T23:16:37.963Z,3.9
2023-02-04T23:19:39.818Z,3.7
2023-02-04T23:22:41.789Z,3.8
2023-02-04T23:25:43.739Z,3.7
2023-02-04T23:28:45.664Z,3.8
2023-02-04T23:31:47.752Z,3.5
2023-02-04T23:34:49.597Z,3.8
2023-02-04T23:37:51.553Z,3.1
2023-02-04T23:40:53.499Z,4
2023-02-04T23:43:55.476Z,4.3
2023-02-04T23:46:57.421Z,3.8
2023-02-04T23:49:59.383Z,4.1
2023-02-04T23:53:01.355Z,4.1
2023-02-04T23:56:03.302Z,4.1
2023-02-04T23:59:05.254Z,5.2
